Time;durP1;ratioP1;P1;durP2;ratioP2;P2;SDS_P1;SDS_P2;PMS_P1;PMS_P2;Temp;Humidity;BMP_temperature;BMP_pressure;BME280_temperature;BME280_humidity;BME280_pressure;Samples;Min_cycle;Max_cycle;Signal;HPM_P1;HPM_P2
2022/01/11 00:00:58;;;;;;;7.72;6.82;;;8.80;81.40;;;;;;5096845;28;20054;-57
2022/01/11 00:03:24;;;;;;;7.50;6.80;;;8.80;81.40;;;;;;5077433;28;20348;-54
2022/01/11 00:08:28;;;;;;;7.32;6.57;;;8.70;81.40;;;;;;5095535;28;20048;-56
2022/01/11 00:11:02;;;;;;;8.25;7.20;;;8.70;81.40;;;;;;5096895;28;20036;-57
2022/01/11 00:13:28;;;;;;;8.93;7.80;;;8.70;81.40;;;;;;5095292;28;20460;-54
2022/01/11 00:15:54;;;;;;;7.85;6.95;;;8.80;81.40;;;;;;5095704;28;20040;-53
2022/01/11 00:18:20;;;;;;;7.93;7.13;;;8.70;81.40;;;;;;5095528;28;20059;-55
2022/01/11 00:20:45;;;;;;;7.47;6.70;;;8.70;81.40;;;;;;5095036;28;20040;-55
2022/01/11 00:25:40;;;;;;;7.88;7.07;;;8.70;81.40;;;;;;5095324;28;20158;-53
2022/01/11 00:28:07;;;;;;;7.82;7.00;;;8.80;81.40;;;;;;5095393;28;20449;-54
2022/01/11 00:30:37;;;;;;;7.80;7.00;;;8.80;81.50;;;;;;5110964;28;20101;-55
2022/01/11 00:33:07;;;;;;;8.32;7.43;;;8.70;81.40;;;;;;5096396;28;20044;-58
2022/01/11 00:35:45;;;;;;;7.70;6.75;;;8.80;81.40;;;;;;5095163;28;20036;-58
2022/01/11 00:38:16;;;;;;;7.13;6.43;;;8.80;81.40;;;;;;5094493;28;20519;-58
2022/01/11 00:40:47;;;;;;;7.75;6.97;;;8.80;81.40;;;;;;5094736;28;20124;-56
2022/01/11 00:43:18;;;;;;;8.63;7.72;;;8.70;81.30;;;;;;5095427;28;20366;-58
2022/01/11 00:45:45;;;;;;;7.50;6.80;;;8.80;81.40;;;;;;5095051;28;20062;-58
2022/01/11 00:48:11;;;;;;;8.18;7.38;;;8.70;81.30;;;;;;5082801;28;20408;-58
2022/01/11 00:50:37;;;;;;;8.05;7.05;;;8.70;81.40;;;;;;5074572;28;20049;-58
2022/01/11 00:53:05;;;;;;;8.68;7.43;;;8.70;81.40;;;;;;5073862;28;20481;-56
2022/01/11 00:55:31;;;;;;;8.38;7.55;;;8.80;81.40;;;;;;5075257;28;20040;-58
2022/01/11 00:57:58;;;;;;;8.05;6.90;;;8.80;81.40;;;;;;5074249;28;20048;-57
2022/01/11 01:00:25;;;;;;;8.00;7.20;;;8.80;81.40;;;;;;5074390;28;20102;-58
2022/01/11 01:02:50;;;;;;;8.25;7.38;;;8.70;81.40;;;;;;5074287;28;20044;-56
2022/01/11 01:05:17;;;;;;;7.68;6.88;;;8.80;81.40;;;;;;5075246;28;20078;-57
2022/01/11 01:07:45;;;;;;;8.00;7.20;;;8.70;81.30;;;;;;5074194;28;20059;-57
2022/01/11 01:10:29;;;;;;;8.02;7.22;;;8.70;81.30;;;;;;5073419;28;20083;-58
2022/01/11 01:12:56;;;;;;;7.63;6.82;;;8.70;81.30;;;;;;5074216;28;20040;-56
2022/01/11 01:15:23;;;;;;;7.88;7.07;;;8.70;81.30;;;;;;5075122;28;20147;-58
2022/01/11 01:17:49;;;;;;;7.85;7.05;;;8.70;81.30;;;;;;5074042;28;20044;-56
2022/01/11 01:20:15;;;;;;;7.93;7.10;;;8.70;81.30;;;;;;5073890;28;20507;-57
2022/01/11 01:22:41;;;;;;;7.97;7.18;;;8.70;81.30;;;;;;5073782;28;20040;-58
2022/01/11 01:25:08;;;;;;;7.07;6.38;;;8.70;81.30;;;;;;5073598;28;20113;-56
2022/01/11 01:27:33;;;;;;;8.65;6.68;;;8.70;81.30;;;;;;5074258;28;20488;-56
2022/01/11 01:29:59;;;;;;;7.20;6.50;;;8.70;81.30;;;;;;5073922;28;20028;-55
2022/01/11 01:32:25;;;;;;;8.05;7.25;;;8.70;81.30;;;;;;5074072;28;20040;-56
2022/01/11 01:34:52;;;;;;;8.35;7.20;;;8.80;81.40;;;;;;5073768;28;20089;-56
2022/01/11 01:37:18;;;;;;;7.93;7.15;;;8.70;81.30;;;;;;5074912;28;20037;-55
2022/01/11 01:39:44;;;;;;;7.47;6.80;;;8.70;81.30;;;;;;5073425;28;20043;-55
2022/01/11 01:42:13;;;;;;;7.57;6.85;;;8.70;81.30;;;;;;5074370;28;20044;-58
2022/01/11 01:44:41;;;;;;;8.82;7.72;;;8.60;81.30;;;;;;5073979;28;20037;-58
2022/01/11 01:47:08;;;;;;;7.40;6.55;;;8.70;81.30;;;;;;5074576;28;20090;-56
2022/01/11 01:49:37;;;;;;;7.63;6.93;;;8.70;81.30;;;;;;5073818;28;20405;-54
2022/01/11 01:52:03;;;;;;;7.60;6.85;;;8.70;81.30;;;;;;5073318;28;20045;-55
2022/01/11 01:54:29;;;;;;;7.97;6.93;;;8.70;81.30;;;;;;5072943;28;20135;-56
2022/01/11 01:56:55;;;;;;;7.88;7.07;;;8.70;81.30;;;;;;5072764;28;20052;-54
2022/01/11 01:59:21;;;;;;;7.95;7.03;;;8.70;81.30;;;;;;5074336;28;20116;-55
2022/01/11 02:01:48;;;;;;;9.65;7.53;;;8.70;81.30;;;;;;5073208;28;20058;-52
2022/01/11 02:04:17;;;;;;;8.00;6.93;;;8.70;81.30;;;;;;5073053;28;20496;-55
2022/01/11 02:06:43;;;;;;;7.20;6.50;;;8.70;81.40;;;;;;5073127;28;20044;-55
2022/01/11 02:09:11;;;;;;;8.60;7.70;;;8.70;81.30;;;;;;5065281;28;20051;-54
2022/01/11 02:11:37;;;;;;;9.15;7.97;;;8.70;81.30;;;;;;5093339;28;20084;-56
2022/01/11 02:14:03;;;;;;;7.80;6.63;;;8.70;81.30;;;;;;5092513;28;20499;-53
2022/01/11 02:16:28;;;;;;;7.45;6.65;;;8.70;81.30;;;;;;5093380;28;20032;-56
2022/01/11 02:18:55;;;;;;;8.48;7.60;;;8.70;81.30;;;;;;5091254;28;20161;-55
2022/01/11 02:21:22;;;;;;;7.78;6.97;;;8.70;81.30;;;;;;5092961;28;20047;-55
2022/01/11 02:23:50;;;;;;;7.78;7.05;;;8.70;81.30;;;;;;5084935;28;20064;-56
2022/01/11 02:26:16;;;;;;;7.60;6.80;;;8.70;81.30;;;;;;5091402;28;20051;-54
2022/01/11 02:28:42;;;;;;;7.38;6.68;;;8.70;81.30;;;;;;5092533;28;20036;-53
2022/01/11 02:31:12;;;;;;;7.40;6.40;;;8.70;81.30;;;;;;5093094;28;20059;-55
2022/01/11 02:33:44;;;;;;;8.30;7.22;;;8.70;81.30;;;;;;5092964;28;20043;-53
2022/01/11 02:36:15;;;;;;;6.90;6.20;;;8.70;81.30;;;;;;5091795;28;20399;-52
2022/01/11 02:38:40;;;;;;;8.60;7.10;;;8.70;81.30;;;;;;5072283;28;20044;-55
2022/01/11 02:41:06;;;;;;;7.75;6.90;;;8.70;81.30;;;;;;5072615;28;20461;-55
2022/01/11 02:43:32;;;;;;;7.38;6.68;;;8.70;81.30;;;;;;5072245;28;20408;-55
2022/01/11 02:46:01;;;;;;;7.95;7.07;;;8.70;81.30;;;;;;5072030;28;20119;-55
2022/01/11 02:48:28;;;;;;;7.75;6.93;;;8.60;81.20;;;;;;5073257;28;20048;-55
2022/01/11 02:50:54;;;;;;;7.78;6.95;;;8.70;81.30;;;;;;5072252;28;20115;-55
2022/01/11 02:53:20;;;;;;;9.40;7.32;;;8.70;81.30;;;;;;5072369;28;20548;-58
2022/01/11 02:55:46;;;;;;;8.05;7.25;;;8.70;81.30;;;;;;5072554;28;20075;-58
2022/01/11 02:58:12;;;;;;;8.32;7.00;;;8.70;81.30;;;;;;5073444;28;20122;-58
2022/01/11 03:00:39;;;;;;;7.95;6.78;;;8.70;81.30;;;;;;5071853;28;20032;-58
2022/01/11 03:03:10;;;;;;;7.03;6.15;;;8.60;81.20;;;;;;5072410;28;20049;-58
2022/01/11 03:05:35;;;;;;;7.43;6.50;;;8.70;81.30;;;;;;5072208;28;20048;-57
2022/01/11 03:08:01;;;;;;;9.57;7.57;;;8.60;81.20;;;;;;5071707;28;20056;-56
2022/01/11 03:10:32;;;;;;;7.75;6.97;;;8.60;81.20;;;;;;5073166;28;20392;-57
2022/01/11 03:13:05;;;;;;;8.02;6.65;;;8.60;81.30;;;;;;5072424;28;20079;-58
2022/01/11 03:15:31;;;;;;;8.68;7.22;;;8.70;81.30;;;;;;5072107;28;20105;-57
2022/01/11 03:17:57;;;;;;;8.60;7.43;;;8.60;81.20;;;;;;5053280;28;20052;-57
2022/01/11 03:20:23;;;;;;;8.15;7.32;;;8.60;81.30;;;;;;5072960;28;20049;-56
2022/01/11 03:22:49;;;;;;;8.02;7.00;;;8.60;81.20;;;;;;5071710;28;20040;-58
2022/01/11 03:25:17;;;;;;;8.05;6.63;;;8.60;81.20;;;;;;5072116;28;20052;-58
2022/01/11 03:27:43;;;;;;;8.00;6.97;;;8.60;81.20;;;;;;5072186;28;20052;-55
2022/01/11 03:30:10;;;;;;;8.20;6.93;;;8.70;81.30;;;;;;5073258;28;20040;-55
2022/01/11 03:32:36;;;;;;;8.27;6.82;;;8.60;81.30;;;;;;5071656;28;20378;-56
2022/01/11 03:35:06;;;;;;;9.25;7.40;;;8.70;81.30;;;;;;5071773;28;20458;-57
2022/01/11 03:37:32;;;;;;;7.72;6.93;;;8.60;81.20;;;;;;5072121;28;20044;-55
2022/01/11 03:39:58;;;;;;;8.32;7.40;;;8.60;81.20;;;;;;5072064;28;20036;-48
2022/01/11 03:42:23;;;;;;;8.70;7.80;;;8.60;81.20;;;;;;5073100;28;20055;-57
2022/01/11 03:44:50;;;;;;;8.25;7.32;;;8.60;81.20;;;;;;5072116;28;20049;-55
2022/01/11 03:47:17;;;;;;;10.23;7.90;;;8.60;81.20;;;;;;5071906;28;20476;-57
2022/01/11 03:49:42;;;;;;;9.77;8.07;;;8.60;81.20;;;;;;5071369;28;20091;-53
2022/01/11 03:52:08;;;;;;;9.98;7.80;;;8.60;81.30;;;;;;5072706;28;20087;-54
2022/01/11 03:57:32;;;;;;;9.15;7.30;;;8.60;81.20;;;;;;5009921;28;20057;-54
2022/01/11 03:59:59;;;;;;;9.32;7.63;;;8.60;81.30;;;;;;5010087;28;20046;-55
2022/01/11 04:02:26;;;;;;;8.82;7.63;;;8.60;81.30;;;;;;5010686;28;20050;-53
2022/01/11 04:04:54;;;;;;;9.57;7.70;;;8.60;81.30;;;;;;5009408;28;20038;-59
2022/01/11 04:07:25;;;;;;;10.30;8.15;;;8.60;81.20;;;;;;5009690;28;20054;-57
2022/01/11 04:09:52;;;;;;;8.70;7.80;;;8.60;81.30;;;;;;5009897;28;20061;-54
2022/01/11 04:12:19;;;;;;;10.40;7.63;;;8.60;81.30;;;;;;5010946;28;20049;-55
2022/01/11 04:14:45;;;;;;;8.65;7.68;;;8.60;81.30;;;;;;5009786;28;20108;-57
2022/01/11 04:17:11;;;;;;;9.13;7.53;;;8.60;81.20;;;;;;5009897;28;20046;-56
2022/01/11 04:19:37;;;;;;;8.88;7.63;;;8.60;81.30;;;;;;5013052;28;20053;-57
2022/01/11 04:22:03;;;;;;;9.88;7.82;;;8.60;81.30;;;;;;5012451;28;20115;-55
2022/01/11 04:24:29;;;;;;;9.45;8.00;;;8.60;81.30;;;;;;5028034;28;20111;-56
2022/01/11 04:26:55;;;;;;;9.50;8.18;;;8.60;81.30;;;;;;5032918;28;20615;-57
2022/01/11 04:29:21;;;;;;;10.80;8.25;;;8.60;81.20;;;;;;5033264;28;20041;-57
2022/01/11 04:31:47;;;;;;;10.90;8.38;;;8.60;81.20;;;;;;5032819;28;20405;-55
2022/01/11 04:34:12;;;;;;;9.23;7.55;;;8.60;81.20;;;;;;5054662;28;20393;-52
2022/01/11 04:36:38;;;;;;;9.73;7.53;;;8.60;81.30;;;;;;5093131;28;20048;-54
2022/01/11 04:39:08;;;;;;;11.00;7.53;;;8.60;81.30;;;;;;5095151;28;20024;-55
2022/01/11 04:41:34;;;;;;;9.88;7.63;;;8.60;81.30;;;;;;5095132;28;20127;-53
2022/01/11 04:44:00;;;;;;;9.35;7.68;;;8.60;81.20;;;;;;5094991;28;20068;-51
2022/01/11 04:46:26;;;;;;;9.75;8.23;;;8.60;81.30;;;;;;5094516;28;20040;-56
2022/01/11 04:48:53;;;;;;;10.13;7.55;;;8.60;81.20;;;;;;5094598;28;20056;-57
2022/01/11 04:51:20;;;;;;;11.25;8.05;;;8.60;81.20;;;;;;5094971;28;20044;-54
2022/01/11 04:53:46;;;;;;;11.32;8.43;;;8.60;81.20;;;;;;5094187;28;20488;-53
2022/01/11 04:56:12;;;;;;;10.40;8.05;;;8.60;81.20;;;;;;5094337;28;20541;-56
2022/01/11 04:58:38;;;;;;;9.68;8.10;;;8.60;81.20;;;;;;5094599;28;20044;-54
2022/01/11 05:01:04;;;;;;;9.48;7.80;;;8.60;81.20;;;;;;5094576;28;20040;-53
2022/01/11 05:03:30;;;;;;;9.30;7.65;;;8.60;81.20;;;;;;5094703;28;20059;-53
2022/01/11 05:05:55;;;;;;;9.93;8.20;;;8.60;81.20;;;;;;5094214;28;20040;-55
2022/01/11 05:08:21;;;;;;;10.02;7.90;;;8.60;81.20;;;;;;5093865;28;20400;-54
2022/01/11 05:10:47;;;;;;;9.38;7.40;;;8.60;81.20;;;;;;5094345;28;20051;-56
2022/01/11 05:13:14;;;;;;;10.40;8.23;;;8.60;81.20;;;;;;5094483;28;20044;-53
2022/01/11 05:15:40;;;;;;;9.15;7.65;;;8.50;81.20;;;;;;5094554;28;20040;-52
2022/01/11 05:18:07;;;;;;;12.13;9.23;;;8.50;81.20;;;;;;5093776;28;20460;-56
2022/01/11 05:20:33;;;;;;;9.00;7.47;;;8.50;81.20;;;;;;5094452;28;20110;-54
2022/01/11 05:22:59;;;;;;;9.45;7.72;;;8.60;81.30;;;;;;5093845;28;20139;-56
2022/01/11 05:25:25;;;;;;;9.57;7.88;;;8.60;81.30;;;;;;5075409;28;20101;-57
2022/01/11 05:27:51;;;;;;;9.95;8.40;;;8.50;81.20;;;;;;5093654;28;20043;-57
2022/01/11 05:30:18;;;;;;;8.50;7.55;;;8.60;81.30;;;;;;5093370;28;20131;-56
2022/01/11 05:32:44;;;;;;;10.30;7.75;;;8.50;81.20;;;;;;5094024;28;20083;-55
2022/01/11 05:35:12;;;;;;;10.00;7.85;;;8.50;81.20;;;;;;5093973;28;20094;-56
2022/01/11 05:37:38;;;;;;;9.88;7.65;;;8.60;81.30;;;;;;5093300;28;20044;-55
2022/01/11 05:40:05;;;;;;;9.52;7.97;;;8.60;81.30;;;;;;5093794;28;20036;-54
2022/01/11 05:42:31;;;;;;;9.35;7.47;;;8.60;81.30;;;;;;5093654;28;20454;-55
2022/01/11 05:44:57;;;;;;;10.93;8.30;;;8.60;81.30;;;;;;5093704;28;20047;-56
2022/01/11 05:47:24;;;;;;;9.40;7.40;;;8.50;81.20;;;;;;5093742;28;20079;-53
2022/01/11 05:49:51;;;;;;;9.30;7.28;;;8.50;81.20;;;;;;5093073;28;20469;-54
2022/01/11 05:52:17;;;;;;;8.65;7.70;;;8.60;81.30;;;;;;5075258;28;20493;-56
2022/01/11 05:54:42;;;;;;;9.98;7.45;;;8.50;81.20;;;;;;5093390;28;20079;-55
2022/01/11 05:57:08;;;;;;;9.95;8.32;;;8.50;81.20;;;;;;5093231;28;20110;-58
2022/01/11 05:59:34;;;;;;;11.05;8.65;;;8.60;81.30;;;;;;5092972;28;20043;-56
2022/01/11 06:01:59;;;;;;;8.95;7.40;;;8.50;81.20;;;;;;5093379;28;20044;-58
2022/01/11 06:04:25;;;;;;;9.52;7.57;;;8.50;81.20;;;;;;5093375;28;20115;-58
2022/01/11 06:06:51;;;;;;;9.57;7.53;;;8.50;81.20;;;;;;5093234;28;20487;-57
2022/01/11 06:09:17;;;;;;;9.38;7.72;;;8.60;81.30;;;;;;5092893;28;20398;-54
2022/01/11 06:11:43;;;;;;;9.82;7.57;;;8.50;81.20;;;;;;5093117;28;20559;-57
2022/01/11 06:14:09;;;;;;;9.85;7.65;;;8.50;81.20;;;;;;5092675;28;20494;-55
2022/01/11 06:16:36;;;;;;;9.27;7.55;;;8.50;81.20;;;;;;5093240;28;20040;-56
2022/01/11 06:19:05;;;;;;;10.15;7.68;;;8.50;81.20;;;;;;5093315;28;20040;-56
2022/01/11 06:21:30;;;;;;;8.93;7.65;;;8.50;81.20;;;;;;5092824;28;20047;-57
2022/01/11 06:23:56;;;;;;;9.55;7.70;;;8.50;81.20;;;;;;5093301;28;20117;-51
2022/01/11 06:26:22;;;;;;;10.45;8.13;;;8.50;81.20;;;;;;5093462;28;20219;-57
2022/01/11 06:28:47;;;;;;;11.00;7.65;;;8.50;81.20;;;;;;5092810;28;20181;-55
2022/01/11 06:31:14;;;;;;;9.15;7.47;;;8.50;81.20;;;;;;5093083;28;20089;-57
2022/01/11 06:33:40;;;;;;;9.85;8.43;;;8.50;81.20;;;;;;5093275;28;20076;-54
2022/01/11 06:36:11;;;;;;;9.52;7.65;;;8.50;81.20;;;;;;5092849;28;20040;-53
2022/01/11 06:38:41;;;;;;;9.88;7.90;;;8.50;81.20;;;;;;5092781;28;20044;-57
2022/01/11 06:41:07;;;;;;;9.85;7.88;;;8.50;81.20;;;;;;5107792;28;20070;-52
2022/01/11 06:43:32;;;;;;;10.30;7.90;;;8.50;81.20;;;;;;5092316;28;20478;-55
2022/01/11 06:45:59;;;;;;;11.35;8.35;;;8.50;81.20;;;;;;5073848;28;20052;-50
2022/01/11 06:48:24;;;;;;;10.70;7.82;;;8.50;81.20;;;;;;5092614;28;20052;-54
2022/01/11 06:50:50;;;;;;;10.98;7.45;;;8.50;81.20;;;;;;5092679;28;20046;-58
2022/01/11 06:53:16;;;;;;;8.40;7.22;;;8.50;81.10;;;;;;5092208;28;20415;-54
2022/01/11 06:55:41;;;;;;;11.18;8.40;;;8.50;81.10;;;;;;5092284;28;20101;-56
2022/01/11 06:58:07;;;;;;;10.93;8.43;;;8.50;81.10;;;;;;5092827;28;20040;-48
2022/01/11 07:00:33;;;;;;;11.02;7.82;;;8.50;81.10;;;;;;5090667;28;20484;-54
2022/01/11 07:02:59;;;;;;;11.05;7.90;;;8.50;81.10;;;;;;5092181;28;20067;-51
2022/01/11 07:05:25;;;;;;;9.05;7.35;;;8.50;81.20;;;;;;5074527;28;20051;-52
2022/01/11 07:07:51;;;;;;;10.25;8.07;;;8.50;81.10;;;;;;5092735;28;20044;-56
2022/01/11 07:10:17;;;;;;;11.68;8.32;;;8.50;81.10;;;;;;5092030;28;20059;-56
2022/01/11 07:12:42;;;;;;;9.32;8.10;;;8.50;81.10;;;;;;5092535;28;20377;-56
2022/01/11 07:15:09;;;;;;;10.77;8.10;;;8.50;81.10;;;;;;5091960;28;20638;-54
2022/01/11 07:17:34;;;;;;;10.98;8.10;;;8.50;81.10;;;;;;5091976;28;20044;-54
2022/01/11 07:20:01;;;;;;;8.88;7.20;;;8.50;81.80;;;;;;5092458;28;20431;-51
2022/01/11 07:22:26;;;;;;;11.38;8.68;;;8.50;81.80;;;;;;5092328;28;20096;-54
2022/01/11 07:24:52;;;;;;;9.82;7.78;;;8.50;81.10;;;;;;5091258;28;20493;-57
2022/01/11 07:27:18;;;;;;;10.07;7.70;;;8.50;81.10;;;;;;5091114;28;20036;-54
2022/01/11 07:29:43;;;;;;;9.80;8.15;;;8.60;81.20;;;;;;5092393;28;20047;-54
2022/01/11 07:32:09;;;;;;;8.80;7.43;;;8.50;81.10;;;;;;5092088;28;20036;-54
2022/01/11 07:34:35;;;;;;;10.05;7.95;;;8.50;81.10;;;;;;5091691;28;20097;-49
2022/01/11 07:37:01;;;;;;;9.65;7.57;;;8.50;81.10;;;;;;5091942;28;20153;-58
2022/01/11 07:39:26;;;;;;;8.90;7.90;;;8.50;81.80;;;;;;5092126;28;20047;-51
2022/01/11 07:41:52;;;;;;;10.73;7.88;;;8.50;81.20;;;;;;5091908;28;20083;-54
2022/01/11 07:44:18;;;;;;;10.75;7.32;;;8.50;81.10;;;;;;5092303;28;20040;-50
2022/01/11 07:46:45;;;;;;;9.77;7.70;;;8.50;81.20;;;;;;5091635;28;20506;-55
2022/01/11 07:49:11;;;;;;;9.18;7.90;;;8.50;81.10;;;;;;5091406;28;20098;-51
2022/01/11 07:51:37;;;;;;;10.82;7.57;;;8.50;81.10;;;;;;5073640;28;20055;-52
2022/01/11 07:54:03;;;;;;;10.75;8.35;;;8.50;81.10;;;;;;5094951;28;20131;-54
2022/01/11 07:56:29;;;;;;;11.05;8.45;;;8.50;81.10;;;;;;5095278;28;20085;-54
2022/01/11 07:58:54;;;;;;;10.85;7.90;;;8.50;81.10;;;;;;5094671;28;20082;-50
2022/01/11 08:01:20;;;;;;;10.05;8.13;;;8.50;81.10;;;;;;5095922;28;20123;-50
2022/01/11 08:03:46;;;;;;;10.38;8.13;;;8.50;81.10;;;;;;5095615;28;20047;-51
2022/01/11 08:06:12;;;;;;;10.35;7.47;;;8.50;81.10;;;;;;5076354;28;20399;-51
2022/01/11 08:08:38;;;;;;;10.02;7.57;;;8.50;81.10;;;;;;5095181;28;20048;-54
2022/01/11 08:11:03;;;;;;;9.90;8.07;;;8.50;81.10;;;;;;5077232;28;20051;-55
2022/01/11 08:13:29;;;;;;;9.68;7.70;;;8.50;81.10;;;;;;5095448;28;20051;-52
2022/01/11 08:15:55;;;;;;;10.48;7.53;;;8.50;81.10;;;;;;5095568;28;20040;-56
2022/01/11 08:18:21;;;;;;;8.75;7.30;;;8.50;81.10;;;;;;5095497;28;20484;-57
2022/01/11 08:20:47;;;;;;;8.70;7.18;;;8.40;81.10;;;;;;5094973;28;20085;-50
2022/01/11 08:23:13;;;;;;;10.23;8.05;;;8.50;81.10;;;;;;5095379;28;20544;-52
2022/01/11 08:25:39;;;;;;;8.63;7.03;;;8.40;81.10;;;;;;5095430;28;20488;-53
2022/01/11 08:28:05;;;;;;;9.63;7.70;;;8.40;81.10;;;;;;5095099;28;20055;-52
2022/01/11 08:30:33;;;;;;;11.07;7.55;;;8.40;81.10;;;;;;5095406;28;20040;-50
2022/01/11 08:32:59;;;;;;;10.93;8.40;;;8.50;81.10;;;;;;5095711;28;20042;-57
2022/01/11 08:35:24;;;;;;;9.70;7.22;;;8.40;81.10;;;;;;5090655;28;20391;-55
2022/01/11 08:37:51;;;;;;;10.35;7.28;;;8.50;81.10;;;;;;5086559;28;20036;-53
2022/01/11 08:40:17;;;;;;;10.57;7.78;;;8.50;81.10;;;;;;5084858;28;20484;-52
2022/01/11 08:42:43;;;;;;;11.35;8.30;;;8.40;81.00;;;;;;5087595;28;20495;-56
2022/01/11 08:45:09;;;;;;;9.25;7.47;;;8.50;81.10;;;;;;5089601;28;20032;-58
2022/01/11 08:47:36;;;;;;;14.20;9.32;;;8.50;81.10;;;;;;5088833;28;20079;-53
2022/01/11 08:50:06;;;;;;;18.40;13.95;;;8.50;80.90;;;;;;5088315;28;20052;-59
2022/01/11 08:52:32;;;;;;;18.50;13.35;;;8.30;78.70;;;;;;5094570;28;20048;-57
2022/01/11 08:54:58;;;;;;;20.30;14.98;;;8.10;78.80;;;;;;5094777;28;20511;-58
2022/01/11 08:57:23;;;;;;;17.92;13.18;;;8.00;78.70;;;;;;5094726;28;20055;-58
2022/01/11 08:59:50;;;;;;;23.52;14.77;;;7.90;78.50;;;;;;5098144;28;20044;-53
2022/01/11 09:02:16;;;;;;;21.38;14.20;;;7.90;78.50;;;;;;5094726;28;20047;-51
2022/01/11 09:04:42;;;;;;;20.50;14.35;;;7.90;78.40;;;;;;5111473;28;20093;-57
2022/01/11 09:07:08;;;;;;;19.02;13.98;;;7.80;78.30;;;;;;5100331;28;20395;-59
2022/01/11 09:09:34;;;;;;;19.73;14.88;;;7.80;78.20;;;;;;5094072;28;20036;-57
2022/01/11 09:12:05;;;;;;;19.20;13.25;;;7.80;78.20;;;;;;5094587;28;20376;-56
2022/01/11 09:14:31;;;;;;;19.08;13.95;;;7.70;78.20;;;;;;5094272;28;20048;-57
2022/01/11 09:16:57;;;;;;;19.48;14.15;;;7.80;78.20;;;;;;5093662;28;20126;-54
2022/01/11 09:19:23;;;;;;;22.45;15.18;;;7.70;78.20;;;;;;5094454;28;20040;-52
2022/01/11 09:21:50;;;;;;;20.70;14.30;;;7.60;78.00;;;;;;5094230;28;20464;-57
2022/01/11 09:24:19;;;;;;;18.92;13.25;;;7.70;78.00;;;;;;5093818;28;20036;-58
2022/01/11 09:26:47;;;;;;;20.98;14.02;;;7.60;77.10;;;;;;5093579;28;20549;-57
2022/01/11 09:29:14;;;;;;;20.05;12.98;;;7.50;77.70;;;;;;5093990;28;20047;-58
2022/01/11 09:31:42;;;;;;;18.13;13.15;;;7.50;78.20;;;;;;5093884;28;20032;-57
2022/01/11 09:34:07;;;;;;;20.42;13.55;;;7.50;78.60;;;;;;5094310;28;20093;-57
2022/01/11 09:36:34;;;;;;;19.30;13.43;;;7.50;78.90;;;;;;5094013;28;20488;-57
2022/01/11 09:39:00;;;;;;;18.70;13.75;;;7.50;79.10;;;;;;5092371;28;20128;-54
2022/01/11 09:41:25;;;;;;;18.25;13.13;;;7.60;79.30;;;;;;5093462;28;20480;-56
2022/01/11 09:43:51;;;;;;;18.88;13.60;;;7.60;79.50;;;;;;5093716;28;20120;-54
2022/01/11 09:46:18;;;;;;;17.42;13.02;;;7.60;79.60;;;;;;5093501;28;20083;-47
2022/01/11 09:48:45;;;;;;;18.23;13.57;;;7.60;80.40;;;;;;5093394;28;20134;-51
2022/01/11 09:51:11;;;;;;;17.17;12.85;;;7.60;79.80;;;;;;5093627;28;20040;-56
2022/01/11 09:53:37;;;;;;;16.48;13.20;;;7.70;80.00;;;;;;5093690;28;20052;-54
2022/01/11 09:56:07;;;;;;;16.83;13.18;;;7.70;80.00;;;;;;5093550;28;20040;-54
2022/01/11 09:58:34;;;;;;;19.30;13.60;;;7.70;80.10;;;;;;5088174;28;20080;-56
2022/01/11 10:01:01;;;;;;;18.48;12.45;;;7.80;80.30;;;;;;5093627;28;20429;-54
2022/01/11 10:03:27;;;;;;;18.67;13.98;;;7.80;80.30;;;;;;5093548;28;20052;-54
2022/01/11 10:05:52;;;;;;;16.63;12.40;;;7.80;80.30;;;;;;5093699;28;20040;-56
2022/01/11 10:08:30;;;;;;;16.52;12.13;;;7.90;80.40;;;;;;5093575;28;20502;-56
2022/01/11 10:10:57;;;;;;;17.25;12.52;;;7.80;80.40;;;;;;5093015;28;20044;-55
2022/01/11 10:13:34;;;;;;;16.42;11.98;;;7.80;80.40;;;;;;5092544;28;20063;-56
2022/01/11 10:16:19;;;;;;;17.48;11.77;;;7.90;80.50;;;;;;5091866;28;20051;-57
2022/01/11 10:18:45;;;;;;;16.20;12.63;;;7.90;80.50;;;;;;5093383;28;20059;-56
2022/01/11 10:21:38;;;;;;;16.25;12.18;;;7.90;80.60;;;;;;5092515;28;20060;-58
2022/01/11 10:24:36;;;;;;;15.77;11.63;;;7.90;80.50;;;;;;5092201;28;20100;-54
2022/01/11 10:27:21;;;;;;;14.82;11.63;;;7.90;80.50;;;;;;5090556;28;20040;-49
2022/01/11 10:29:55;;;;;;;15.53;11.70;;;7.90;80.60;;;;;;5094646;28;20568;-53
2022/01/11 10:32:35;;;;;;;15.88;11.70;;;7.90;80.60;;;;;;5113696;28;20036;-56
2022/01/11 10:35:26;;;;;;;16.80;12.25;;;8.00;80.60;;;;;;5113669;28;20407;-53
2022/01/11 10:38:00;;;;;;;15.13;11.18;;;8.00;80.70;;;;;;5113654;28;20075;-55
2022/01/11 10:40:34;;;;;;;13.73;11.82;;;8.00;81.30;;;;;;5094921;28;20066;-57
2022/01/11 10:43:10;;;;;;;15.52;11.25;;;8.00;80.70;;;;;;5113091;28;20495;-54
2022/01/11 10:45:41;;;;;;;14.55;11.13;;;8.00;80.70;;;;;;5112827;28;20130;-55
2022/01/11 10:48:13;;;;;;;15.82;12.00;;;8.00;80.70;;;;;;5112993;28;20057;-54
2022/01/11 10:50:47;;;;;;;14.82;11.52;;;8.00;80.70;;;;;;5094401;28;20054;-59
2022/01/11 10:53:16;;;;;;;17.70;12.57;;;8.00;80.70;;;;;;5113069;28;20047;-58
2022/01/11 10:55:43;;;;;;;15.90;10.25;;;8.00;80.70;;;;;;5113440;28;20035;-57
2022/01/11 10:58:11;;;;;;;15.13;12.05;;;8.00;80.70;;;;;;5112893;28;20457;-58
2022/01/11 11:00:38;;;;;;;15.02;10.88;;;8.00;80.70;;;;;;5112684;28;20047;-58
2022/01/11 11:03:14;;;;;;;14.55;11.40;;;8.00;80.70;;;;;;5113110;28;20070;-53
2022/01/11 11:05:46;;;;;;;15.40;11.00;;;8.10;80.70;;;;;;5087655;28;20040;-55
2022/01/11 11:08:16;;;;;;;13.65;10.75;;;8.00;80.70;;;;;;5089517;28;20043;-56
2022/01/11 11:10:46;;;;;;;14.75;11.30;;;8.00;80.70;;;;;;5091427;28;20042;-48
2022/01/11 11:13:25;;;;;;;12.93;10.20;;;8.10;80.80;;;;;;5074222;28;20056;-50
2022/01/11 11:15:53;;;;;;;14.52;11.15;;;8.10;80.80;;;;;;5092215;28;20423;-53
2022/01/11 11:18:26;;;;;;;15.65;10.65;;;8.10;80.70;;;;;;5091945;28;20441;-56
2022/01/11 11:20:53;;;;;;;14.68;11.63;;;8.10;80.70;;;;;;5079960;28;20032;-55
2022/01/11 11:23:19;;;;;;;14.60;10.82;;;8.10;80.70;;;;;;5091419;28;20036;-51
2022/01/11 11:25:45;;;;;;;15.40;11.05;;;8.10;80.70;;;;;;5092442;28;20036;-57
2022/01/11 11:28:12;;;;;;;14.95;10.55;;;8.10;80.70;;;;;;5089345;28;20408;-59
2022/01/11 11:30:38;;;;;;;14.68;11.00;;;8.10;80.70;;;;;;5096569;28;20043;-58
2022/01/11 11:33:03;;;;;;;13.77;10.27;;;8.10;80.80;;;;;;5096185;28;20041;-58
2022/01/11 11:35:29;;;;;;;13.07;10.02;;;8.10;80.70;;;;;;5096564;28;20063;-58
2022/01/11 11:38:02;;;;;;;13.05;10.52;;;8.10;80.80;;;;;;5096360;28;20502;-58
2022/01/11 11:40:31;;;;;;;13.07;10.15;;;8.10;80.80;;;;;;5058216;28;20515;-58
2022/01/11 11:42:59;;;;;;;11.38;9.88;;;8.10;80.70;;;;;;5076197;28;20082;-58
2022/01/11 11:45:34;;;;;;;15.35;10.23;;;8.10;80.80;;;;;;5076163;28;20047;-54
2022/01/11 11:48:10;;;;;;;12.13;9.90;;;8.10;80.80;;;;;;5075546;28;20052;-59
2022/01/11 11:51:06;;;;;;;14.60;9.98;;;8.10;80.80;;;;;;5075440;28;20056;-56
2022/01/11 11:53:36;;;;;;;;;;;8.10;80.80;;;;;;5084692;28;20597;-55
2022/01/11 11:56:19;;;;;;;14.02;10.57;;;8.10;80.80;;;;;;5091596;28;20315;-56
2022/01/11 11:58:55;;;;;;;14.82;10.80;;;8.10;80.90;;;;;;5095086;28;20036;-57
2022/01/11 12:01:42;;;;;;;12.60;9.63;;;8.10;80.90;;;;;;5094667;28;20059;-57
2022/01/11 12:04:27;;;;;;;10.90;9.63;;;8.10;80.80;;;;;;5095146;28;20087;-57
2022/01/11 12:06:55;;;;;;;12.10;9.63;;;8.10;80.90;;;;;;5094482;28;20052;-58
2022/01/11 12:09:22;;;;;;;12.48;9.90;;;8.10;80.90;;;;;;5094975;28;20143;-58
2022/01/11 12:11:50;;;;;;;11.50;9.18;;;8.10;80.90;;;;;;5095460;28;20119;-58
2022/01/11 12:14:30;;;;;;;11.02;9.35;;;8.20;81.00;;;;;;5089000;28;20169;-57
2022/01/11 12:16:56;;;;;;;13.20;9.88;;;8.10;81.50;;;;;;5094706;28;20091;-58
2022/01/11 12:19:41;;;;;;;12.70;9.70;;;8.20;80.90;;;;;;5095660;28;20047;-57
2022/01/11 12:22:07;;;;;;;12.60;9.35;;;8.20;80.90;;;;;;5095216;28;20048;-56
2022/01/11 12:24:35;;;;;;;11.70;9.77;;;8.10;80.90;;;;;;5094592;28;20488;-57
2022/01/11 12:27:01;;;;;;;11.55;9.48;;;8.20;81.00;;;;;;5095123;28;20039;-56
2022/01/11 12:29:27;;;;;;;12.23;9.50;;;8.20;81.00;;;;;;5077122;28;20048;-56
2022/01/11 12:32:07;;;;;;;12.50;9.77;;;8.20;81.00;;;;;;5094507;28;20090;-57
2022/01/11 12:34:50;;;;;;;10.73;8.70;;;8.20;80.90;;;;;;5095017;28;20093;-58
2022/01/11 12:37:23;;;;;;;12.07;9.05;;;8.20;80.90;;;;;;5094295;28;20118;-54
2022/01/11 12:40:13;;;;;;;12.43;10.18;;;8.20;81.00;;;;;;5093911;28;20083;-58
2022/01/11 12:43:06;;;;;;;10.65;8.73;;;8.20;80.90;;;;;;5074955;28;20101;-55
2022/01/11 12:46:03;;;;;;;11.90;8.93;;;8.20;80.90;;;;;;5089845;28;20043;-54
2022/01/11 12:48:48;;;;;;;10.00;8.15;;;8.20;80.90;;;;;;5094627;28;20498;-55
2022/01/11 12:51:29;;;;;;;10.82;8.27;;;8.20;80.90;;;;;;5094044;28;20403;-56
2022/01/11 12:54:16;;;;;;;11.73;9.10;;;8.20;80.90;;;;;;5074820;28;20058;-56
2022/01/11 12:56:43;;;;;;;10.63;8.75;;;8.20;80.90;;;;;;5094134;28;20036;-56
2022/01/11 12:59:09;;;;;;;12.30;9.27;;;8.20;80.90;;;;;;5094632;28;20464;-56
2022/01/11 13:01:35;;;;;;;11.43;9.02;;;8.10;80.90;;;;;;5093664;28;20442;-56
2022/01/11 13:04:02;;;;;;;10.77;8.82;;;8.20;81.00;;;;;;5094497;28;20116;-56